Los Angeles, California
Current Conditions -  °F | °C
As of 4:47 PM on Wednesday 22 Oct 2014 (Local Time) from KCQT Reporting Station
Clear Clear  
Wind Chill: 25°   Ceiling: Unl
Heat Index: 26°   Visibility: 10mi
Dew Point: 13°   Wind: 5mph
Humidity: 46%   Direction: NA
Pressure: 29.88"   Gusts: NA
Location:  34.05°N, 118.24°W
Report Text: KCQT 222347Z AUTO VRB04KT 10SM CLR 25/13 A2988 RMK AO2 SLP115 T02500128 10289 20244 58002
Loading
Personal Weather Stations






























Interactive Weather Map New forecast layout! Learn more

10-Day Weather Forecast

Advertisements
Track Severe Weather on mobile